createdAt,value
2022-12-11T00:04:04.981Z,-1.71
2022-12-11T00:09:06.626Z,-1.69
2022-12-11T00:14:08.429Z,-1.68
2022-12-11T00:19:10.119Z,-1.75
2022-12-11T00:24:11.779Z,-1.75
2022-12-11T00:29:14.831Z,-1.77
2022-12-11T00:34:19.230Z,-1.74
2022-12-11T00:39:20.887Z,-1.71
2022-12-11T00:44:22.540Z,-1.75
2022-12-11T00:49:24.162Z,-1.79
2022-12-11T00:54:26.098Z,-1.81
2022-12-11T00:59:28.573Z,-1.84
2022-12-11T01:04:30.409Z,-1.86
2022-12-11T01:09:50.601Z,-1.84
2022-12-11T01:14:52.246Z,-1.86
2022-12-11T01:19:54.854Z,-1.93
2022-12-11T01:24:56.479Z,-1.92
2022-12-11T01:29:58.438Z,-1.96
2022-12-11T01:35:00.570Z,-2.00
2022-12-11T01:40:02.220Z,-2.03
2022-12-11T01:45:23.836Z,-2.04
2022-12-11T01:50:28.269Z,-2.08
2022-12-11T01:55:29.975Z,-2.10
2022-12-11T02:00:31.648Z,-2.09
2022-12-11T02:05:33.404Z,-2.10
2022-12-11T02:10:41.113Z,-2.05
2022-12-11T02:15:50.108Z,-2.07
2022-12-11T02:21:13.089Z,-2.08
2022-12-11T02:26:39.641Z,-2.09
2022-12-11T02:31:41.266Z,-2.08
2022-12-11T02:36:50.507Z,-2.11
2022-12-11T02:41:52.342Z,-2.14
2022-12-11T02:46:54.873Z,-2.16
2022-12-11T02:51:57.012Z,-2.20
2022-12-11T02:57:17.545Z,-2.24
2022-12-11T03:02:19.364Z,-2.24
2022-12-11T03:07:25.416Z,-2.24
2022-12-11T03:12:33.283Z,-2.24
2022-12-11T03:18:02.859Z,-2.26
2022-12-11T03:23:12.991Z,-2.28
2022-12-11T03:28:21.248Z,-2.32
2022-12-11T03:33:30.048Z,-2.32
2022-12-11T03:38:36.081Z,-2.31
2022-12-11T03:43:38.806Z,-2.30
2022-12-11T03:48:41.916Z,-2.29
2022-12-11T03:53:44.103Z,-2.27
2022-12-11T03:58:45.779Z,-2.29
2022-12-11T04:03:47.441Z,-2.28
2022-12-11T04:08:49.136Z,-2.24
2022-12-11T04:14:10.904Z,-2.23
2022-12-11T04:19:30.856Z,-2.29
2022-12-11T04:24:38.536Z,-2.25
2022-12-11T04:29:40.374Z,-2.28
2022-12-11T04:34:42.386Z,-2.22
2022-12-11T04:39:44.275Z,-2.20
2022-12-11T04:44:45.946Z,-2.20
2022-12-11T04:49:47.571Z,-2.17
2022-12-11T04:54:49.209Z,-2.24
2022-12-11T04:59:50.843Z,-2.22
2022-12-11T05:04:52.575Z,-2.20
2022-12-11T05:09:54.261Z,-2.18
2022-12-11T05:14:55.952Z,-2.16
2022-12-11T05:19:57.546Z,-2.15
2022-12-11T05:24:59.184Z,-2.25
2022-12-11T05:30:00.802Z,-2.47
2022-12-11T05:35:03.754Z,-2.63
2022-12-11T05:40:06.412Z,-2.70
2022-12-11T05:45:08.704Z,-2.72
2022-12-11T05:50:10.984Z,-2.64
2022-12-11T05:55:15.413Z,-2.62
2022-12-11T06:00:17.066Z,-2.67
2022-12-11T06:05:18.701Z,-2.79
2022-12-11T06:10:20.351Z,-2.82
2022-12-11T06:15:22.238Z,-2.93
2022-12-11T06:20:23.854Z,-2.91
2022-12-11T06:25:25.851Z,-2.87
2022-12-11T06:30:38.733Z,-2.90
2022-12-11T06:35:42.473Z,-2.91
2022-12-11T06:40:44.531Z,-3.01
2022-12-11T06:45:46.243Z,-3.05
2022-12-11T06:50:47.905Z,-3.01
2022-12-11T06:55:49.593Z,-3.09
2022-12-11T07:00:51.278Z,-3.07
2022-12-11T07:05:52.949Z,-3.01
2022-12-11T07:10:57.234Z,-2.98
2022-12-11T07:16:00.294Z,-3.01
2022-12-11T07:21:01.942Z,-3.06
2022-12-11T07:26:12.180Z,-3.09
2022-12-11T07:31:16.412Z,-3.08
2022-12-11T07:36:18.324Z,-3.05
2022-12-11T07:41:23.235Z,-3.07
2022-12-11T07:46:30.183Z,-3.09
2022-12-11T07:51:35.565Z,-3.05
2022-12-11T07:56:37.196Z,-2.99
2022-12-11T08:01:39.807Z,-3.05
2022-12-11T08:06:42.396Z,-3.07
2022-12-11T08:11:44.225Z,-3.10
2022-12-11T08:16:47.335Z,-3.14
2022-12-11T08:21:49.029Z,-3.14
2022-12-11T08:26:50.699Z,-3.15
2022-12-11T08:31:52.406Z,-3.22
2022-12-11T08:36:54.304Z,-3.22
2022-12-11T08:41:55.941Z,-3.21
2022-12-11T08:46:57.583Z,-3.17
2022-12-11T08:51:59.183Z,-3.04
2022-12-11T08:57:00.805Z,-3.08
2022-12-11T09:02:02.463Z,-3.05
2022-12-11T09:07:04.442Z,-3.03
2022-12-11T09:12:06.340Z,-3.01
2022-12-11T09:17:08.879Z,-3.09
2022-12-11T09:22:13.320Z,-3.06
2022-12-11T09:27:15.014Z,-3.04
2022-12-11T09:32:16.676Z,-3.06
2022-12-11T09:37:18.715Z,-3.09
2022-12-11T09:42:37.421Z,-2.96
2022-12-11T09:47:44.389Z,-2.81
2022-12-11T09:52:54.709Z,-2.69
2022-12-11T09:58:05.353Z,-2.49
2022-12-11T10:03:15.795Z,-2.28
2022-12-11T10:08:41.926Z,-2.38
2022-12-11T10:14:06.213Z,-2.32
2022-12-11T10:19:25.216Z,-2.20
2022-12-11T10:25:12.559Z,-2.13
2022-12-11T10:30:24.079Z,-2.04
2022-12-11T10:35:39.561Z,-1.93
2022-12-11T10:40:44.724Z,-1.86
2022-12-11T10:45:58.534Z,-2.05
2022-12-11T10:51:06.264Z,-2.02
2022-12-11T10:56:07.824Z,-1.80
2022-12-11T11:01:18.738Z,-1.78
2022-12-11T11:06:22.143Z,-1.62
2022-12-11T11:11:33.940Z,-1.69
2022-12-11T11:16:38.207Z,-1.37
2022-12-11T11:21:49.160Z,-1.62
2022-12-11T11:27:12.802Z,-1.60
2022-12-11T11:32:33.030Z,-1.69
2022-12-11T11:37:34.971Z,-1.91
2022-12-11T11:42:45.904Z,-2.05
2022-12-11T11:48:03.121Z,-2.00
2022-12-11T11:53:15.956Z,-1.92
2022-12-11T11:58:25.733Z,-1.86
2022-12-11T12:03:28.772Z,-1.81
2022-12-11T12:08:36.152Z,-2.04
2022-12-11T12:13:53.672Z,-2.27
2022-12-11T12:19:23.454Z,-2.43
2022-12-11T12:24:43.408Z,-2.58
2022-12-11T12:30:21.838Z,-2.57
2022-12-11T12:35:37.633Z,-2.44
2022-12-11T12:41:18.897Z,-2.33
2022-12-11T12:46:51.812Z,-2.32
2022-12-11T12:51:56.717Z,-2.47
2022-12-11T12:57:01.660Z,-2.46
2022-12-11T13:02:04.642Z,-2.47
2022-12-11T13:07:15.253Z,-2.52
2022-12-11T13:12:38.201Z,-2.63
2022-12-11T13:17:39.901Z,-2.72
2022-12-11T13:22:48.949Z,-2.65
2022-12-11T13:27:50.874Z,-2.57
2022-12-11T13:33:05.225Z,-2.44
2022-12-11T13:38:20.829Z,-2.29
2022-12-11T13:43:25.201Z,-2.24
2022-12-11T13:48:50.613Z,-2.29
2022-12-11T13:54:17.010Z,-2.27
2022-12-11T13:59:29.219Z,-2.33
2022-12-11T14:04:32.308Z,-2.35
2022-12-11T14:09:34.031Z,-2.41
2022-12-11T14:14:44.766Z,-2.54
2022-12-11T14:19:49.729Z,-2.63
2022-12-11T14:24:53.350Z,-2.64
2022-12-11T14:29:55.258Z,-2.73
2022-12-11T14:34:57.217Z,-2.83
2022-12-11T14:40:09.151Z,-2.90
2022-12-11T14:45:20.472Z,-3.01
2022-12-11T14:50:38.358Z,-3.08
2022-12-11T14:55:40.112Z,-3.10
2022-12-11T15:00:44.473Z,-3.02
2022-12-11T15:05:54.550Z,-3.04
2022-12-11T15:11:13.850Z,-3.11
2022-12-11T15:16:16.043Z,-3.07
2022-12-11T15:21:18.175Z,-3.09
2022-12-11T15:26:22.920Z,-3.11
2022-12-11T15:31:33.580Z,-3.07
2022-12-11T15:36:36.237Z,-3.09
2022-12-11T15:41:38.007Z,-3.11
2022-12-11T15:46:39.989Z,-3.16
2022-12-11T15:51:44.821Z,-3.19
2022-12-11T15:56:47.034Z,-3.19
2022-12-11T16:01:49.121Z,-3.25
2022-12-11T16:06:51.363Z,-3.22
2022-12-11T16:11:53.042Z,-3.26
2022-12-11T16:16:54.761Z,-3.22
2022-12-11T16:21:56.420Z,-3.19
2022-12-11T16:26:59.201Z,-3.18
2022-12-11T16:32:01.031Z,-3.19
2022-12-11T16:37:03.770Z,-3.18
2022-12-11T16:42:08.665Z,-3.14
2022-12-11T16:47:10.776Z,-3.14
2022-12-11T16:52:15.290Z,-3.18
2022-12-11T16:57:19.353Z,-3.11
2022-12-11T17:02:21.239Z,-3.17
2022-12-11T17:07:22.905Z,-3.14
2022-12-11T17:12:27.740Z,-3.13
2022-12-11T17:17:29.449Z,-3.11
2022-12-11T17:22:31.359Z,-3.14
2022-12-11T17:27:33.018Z,-3.22
2022-12-11T17:32:34.639Z,-3.19
2022-12-11T17:37:36.320Z,-3.19
2022-12-11T17:42:37.939Z,-3.19
2022-12-11T17:47:39.880Z,-3.15
2022-12-11T17:52:44.290Z,-3.15
2022-12-11T17:57:46.527Z,-3.13
2022-12-11T18:02:48.749Z,-3.16
2022-12-11T18:07:55.891Z,-3.17
2022-12-11T18:12:59.348Z,-3.18
2022-12-11T18:18:00.971Z,-3.18
2022-12-11T18:23:02.819Z,-3.17
2022-12-11T18:28:04.968Z,-3.13
2022-12-11T18:33:07.025Z,-3.10
2022-12-11T18:38:12.247Z,-3.05
2022-12-11T18:43:14.069Z,-3.08
2022-12-11T18:48:16.166Z,-3.11
2022-12-11T18:53:18.805Z,-3.08
2022-12-11T18:58:20.873Z,-3.06
2022-12-11T19:36:59.006Z,-3.04
2022-12-11T19:42:03.695Z,-3.05
2022-12-11T19:47:12.340Z,-3.09
2022-12-11T19:52:14.575Z,-3.06
2022-12-11T19:57:30.017Z,-3.24
2022-12-11T20:02:34.345Z,-3.30
2022-12-11T20:07:38.512Z,-3.27
2022-12-11T20:12:42.736Z,-3.24
2022-12-11T20:17:47.979Z,-3.27
2022-12-11T20:22:53.805Z,-3.37
2022-12-11T20:27:57.483Z,-3.37
2022-12-11T20:32:59.310Z,-3.32
2022-12-11T20:38:01.034Z,-3.27
2022-12-11T20:43:02.674Z,-3.24
2022-12-11T20:48:04.628Z,-3.25
2022-12-11T20:53:06.673Z,-3.29
2022-12-11T20:58:08.955Z,-3.30
2022-12-11T21:03:51.825Z,-3.32
2022-12-11T21:15:01.795Z,-3.41
2022-12-11T21:20:04.213Z,-3.35
2022-12-11T21:25:06.476Z,-3.38
2022-12-11T21:30:11.960Z,-3.37
2022-12-11T21:35:14.179Z,-3.36
2022-12-11T21:40:24.663Z,-3.35
2022-12-11T21:51:47.811Z,-3.28
2022-12-11T21:56:53.582Z,-3.35
2022-12-11T22:01:55.280Z,-3.33
2022-12-11T22:07:03.400Z,-3.34
2022-12-11T22:12:06.721Z,-3.38
2022-12-11T22:17:11.091Z,-3.36
2022-12-11T22:22:21.984Z,-3.29
2022-12-11T22:27:30.909Z,-3.31
2022-12-11T22:32:40.161Z,-3.25
2022-12-11T22:37:41.756Z,-3.25
2022-12-11T22:42:44.138Z,-3.26
2022-12-11T22:47:45.785Z,-3.23
2022-12-11T22:52:47.485Z,-3.22
2022-12-11T22:57:50.531Z,-3.23
2022-12-11T23:02:53.639Z,-3.26
2022-12-11T23:07:55.488Z,-3.25
2022-12-11T23:12:57.156Z,-3.29
2022-12-11T23:17:58.900Z,-3.26
2022-12-11T23:23:00.970Z,-3.24
2022-12-11T23:28:02.890Z,-3.24
2022-12-11T23:33:06.595Z,-3.25
2022-12-11T23:38:08.286Z,-3.27
2022-12-11T23:43:09.904Z,-3.26
2022-12-11T23:48:14.881Z,-3.27
2022-12-11T23:53:16.685Z,-3.28
2022-12-11T23:58:18.582Z,-3.29
